Sunflower Hakata — JL6711 — position and weather

sailwx.info

Track history (hours):
 
Tides and Currents Weather Stations Pressure Air Temp Water Temp Dewpoint Dewpoint Depression Visibility Wind Speed Wind Dir Waves Ship Positions

Sunflower Hakata

Last reported at 2014-Oct-24 04:34 UTC. Time now 2014-Oct-24 12:44 UTC.
Position N 34°04' E 134°59'.

Length 167 m; draft 6.5 m.

Type: Cargo ship. MMSI: 431501764.

Date/timePositionNaut miles runAvg speedWind from/ knotsBaromVisibWave heightAir tempDewpointWater temp
2014-Oct-24 04:34N 34°04' E 134°59'2323.0
2014-Oct-24 03:33N 34°27' E 135°01'1212.0
2014-Oct-24 02:33N 34°33' E 134°48'10411.6
2014-Oct-23 17:33N 34°02' E 132°47'10016.7
2014-Oct-23 11:32N 34°02' E 130°46'2121.3
2014-Oct-23 10:33N 33°56' E 130°23'1817.5
2014-Oct-23 09:33N 33°39' E 130°18'5 5.0
2014-Oct-23 08:33N 33°38' E 130°24'0 0.0
2014-Oct-23 07:31N 33°38' E 130°24'0 0.0
2014-Oct-23 06:29N 33°38' E 130°24'0 0.0
2014-Oct-23 05:31N 33°38' E 130°24'0 0.0
2014-Oct-23 04:32N 33°38' E 130°24'0 0.0
2014-Oct-23 03:29N 33°38' E 130°24'0 0.0
2014-Oct-23 02:32N 33°38' E 130°24'0 0.0
2014-Oct-23 01:31N 33°38' E 130°24'0 0.0
2014-Oct-23 00:32N 33°38' E 130°24'0 0.0
2014-Oct-22 23:32N 33°38' E 130°24'0 0.0
2014-Oct-22 22:31N 33°38' E 130°24'0 0.0
2014-Oct-22 21:32N 33°38' E 130°24'0 0.0
2014-Oct-22 20:32N 33°38' E 130°24'8 8.7
2014-Oct-22 19:33N 33°42' E 130°15'2019.4
2014-Oct-22 18:32N 33°58' E 130°28'45216.1
2014-Oct-21 14:31N 34°60' E 139°32'1718.2
2014-Oct-21 13:34N 35°13' E 139°46'1313.1
2014-Oct-21 12:33N 35°26' E 139°45'11 0.8
2014-Oct-20 22:20N 35°37' E 139°48'0 0.0
2014-Oct-20 20:14N 35°37' E 139°48'0 0.0
2014-Oct-20 19:26N 35°37' E 139°48'0 0.0
2014-Oct-20 18:32N 35°37' E 139°48'0 0.0
2014-Oct-20 17:20N 35°37' E 139°48'0 0.0
2014-Oct-20 16:20N 35°37' E 139°48'0 0.0
2014-Oct-20 15:20N 35°37' E 139°48'0 0.0
2014-Oct-20 14:32N 35°37' E 139°48'0 0.0
2014-Oct-20 13:08N 35°37' E 139°48'0 0.0
2014-Oct-20 05:20N 35°37' E 139°48'0 0.0
2014-Oct-19 22:26N 35°37' E 139°48'0 0.0
2014-Oct-19 21:32N 35°37' E 139°48'0 0.0
2014-Oct-19 20:33N 35°37' E 139°48'8 7.7
2014-Oct-19 19:33N 35°30' E 139°52'1413.9
2014-Oct-19 18:33N 35°17' E 139°45'1615.8
2014-Oct-19 17:34N 35°02' E 139°40'24218.5
2014-Oct-19 04:27N 33°53' E 134°59'1921.6
2014-Oct-19 03:34N 34°12' E 134°58'2222.0
2014-Oct-19 02:34N 34°34' E 135°03'2019.2
2014-Oct-19 01:32N 34°33' E 134°39'9811.6
2014-Oct-18 17:08N 34°02' E 132°47'9617.2
2014-Oct-18 11:32N 34°01' E 130°50'2221.1
2014-Oct-18 10:30N 33°57' E 130°24'1919.7
2014-Oct-18 09:32N 33°39' E 130°17'6 5.9
2014-Oct-18 08:33N 33°38' E 130°24'0 0.0
2014-Oct-18 07:34N 33°38' E 130°24'0 0.0
2014-Oct-18 06:33N 33°38' E 130°24'0 0.0
2014-Oct-18 05:31N 33°38' E 130°24'0 0.0
2014-Oct-18 04:31N 33°38' E 130°24'0 0.0
2014-Oct-18 03:28N 33°38' E 130°24'0 0.0
2014-Oct-18 02:31N 33°38' E 130°24'0 0.0
2014-Oct-18 01:31N 33°38' E 130°24'0 0.0
2014-Oct-18 00:31N 33°38' E 130°24'0 0.0
2014-Oct-17 23:31N 33°38' E 130°24'0 0.0
2014-Oct-17 22:31N 33°38' E 130°24'0 0.0
2014-Oct-17 21:31N 33°38' E 130°24'0 0.0
2014-Oct-17 20:33N 33°38' E 130°24'8 8.4
2014-Oct-17 19:33N 33°42' E 130°16'2119.8
2014-Oct-17 18:31N 33°60' E 130°27'45716.3
2014-Oct-16 14:32N 35°03' E 139°37'1515.5
2014-Oct-16 13:33N 35°16' E 139°46'1312.7
2014-Oct-16 12:33N 35°28' E 139°49'257 8.5
2014-Oct-15 06:27N 33°53' E 134°59'2022.7
2014-Oct-15 05:33N 34°14' E 134°58'2121.2
2014-Oct-15 04:33N 34°35' E 135°02'1817.5
2014-Oct-15 03:31N 34°32' E 134°41'10011.2
2014-Oct-14 18:33N 34°01' E 132°46'2521.0
2014-Oct-14 17:23N 33°45' E 132°23'8617.8
2014-Oct-14 12:33N 34°03' E 130°42'1919.2
2014-Oct-14 11:33N 33°53' E 130°21'1615.6
2014-Oct-14 10:33N 33°38' E 130°21'2 2.3
2014-Oct-14 09:32N 33°38' E 130°24'  
Track history (hours):
 
Tides and Currents Weather Stations Pressure Air Temp Water Temp Dewpoint Dewpoint Depression Visibility Wind Speed Wind Dir Waves Ship Positions

Sunflower Hakata

Last reported at 2014-Oct-24 04:34 UTC. Time now 2014-Oct-24 12:44 UTC.
Position N 34°04' E 134°59'.

Length 167 m; draft 6.5 m.

Type: Cargo ship. MMSI: 431501764.

Date/timePositionNaut miles runAvg speedWind from/ knotsBaromVisibWave heightAir tempDewpointWater temp
2014-Oct-24 04:34N 34°04' E 134°59'2323.0
2014-Oct-24 03:33N 34°27' E 135°01'1212.0
2014-Oct-24 02:33N 34°33' E 134°48'10411.6
2014-Oct-23 17:33N 34°02' E 132°47'10016.7
2014-Oct-23 11:32N 34°02' E 130°46'2121.3
2014-Oct-23 10:33N 33°56' E 130°23'1817.5
2014-Oct-23 09:33N 33°39' E 130°18'5 5.0
2014-Oct-23 08:33N 33°38' E 130°24'0 0.0
2014-Oct-23 07:31N 33°38' E 130°24'0 0.0
2014-Oct-23 06:29N 33°38' E 130°24'0 0.0
2014-Oct-23 05:31N 33°38' E 130°24'0 0.0
2014-Oct-23 04:32N 33°38' E 130°24'0 0.0
2014-Oct-23 03:29N 33°38' E 130°24'0 0.0
2014-Oct-23 02:32N 33°38' E 130°24'0 0.0
2014-Oct-23 01:31N 33°38' E 130°24'0 0.0
2014-Oct-23 00:32N 33°38' E 130°24'0 0.0
2014-Oct-22 23:32N 33°38' E 130°24'0 0.0
2014-Oct-22 22:31N 33°38' E 130°24'0 0.0
2014-Oct-22 21:32N 33°38' E 130°24'0 0.0
2014-Oct-22 20:32N 33°38' E 130°24'8 8.7
2014-Oct-22 19:33N 33°42' E 130°15'2019.4
2014-Oct-22 18:32N 33°58' E 130°28'45216.1
2014-Oct-21 14:31N 34°60' E 139°32'1718.2
2014-Oct-21 13:34N 35°13' E 139°46'1313.1
2014-Oct-21 12:33N 35°26' E 139°45'11 0.8
2014-Oct-20 22:20N 35°37' E 139°48'0 0.0
2014-Oct-20 20:14N 35°37' E 139°48'0 0.0
2014-Oct-20 19:26N 35°37' E 139°48'0 0.0
2014-Oct-20 18:32N 35°37' E 139°48'0 0.0
2014-Oct-20 17:20N 35°37' E 139°48'0 0.0
2014-Oct-20 16:20N 35°37' E 139°48'0 0.0
2014-Oct-20 15:20N 35°37' E 139°48'0 0.0
2014-Oct-20 14:32N 35°37' E 139°48'0 0.0
2014-Oct-20 13:08N 35°37' E 139°48'0 0.0
2014-Oct-20 05:20N 35°37' E 139°48'0 0.0
2014-Oct-19 22:26N 35°37' E 139°48'0 0.0
2014-Oct-19 21:32N 35°37' E 139°48'0 0.0
2014-Oct-19 20:33N 35°37' E 139°48'8 7.7
2014-Oct-19 19:33N 35°30' E 139°52'1413.9
2014-Oct-19 18:33N 35°17' E 139°45'1615.8
2014-Oct-19 17:34N 35°02' E 139°40'24218.5
2014-Oct-19 04:27N 33°53' E 134°59'1921.6
2014-Oct-19 03:34N 34°12' E 134°58'2222.0
2014-Oct-19 02:34N 34°34' E 135°03'2019.2
2014-Oct-19 01:32N 34°33' E 134°39'9811.6
2014-Oct-18 17:08N 34°02' E 132°47'9617.2
2014-Oct-18 11:32N 34°01' E 130°50'2221.1
2014-Oct-18 10:30N 33°57' E 130°24'1919.7
2014-Oct-18 09:32N 33°39' E 130°17'6 5.9
2014-Oct-18 08:33N 33°38' E 130°24'0 0.0
2014-Oct-18 07:34N 33°38' E 130°24'0 0.0
2014-Oct-18 06:33N 33°38' E 130°24'0 0.0
2014-Oct-18 05:31N 33°38' E 130°24'0 0.0
2014-Oct-18 04:31N 33°38' E 130°24'0 0.0
2014-Oct-18 03:28N 33°38' E 130°24'0 0.0
2014-Oct-18 02:31N 33°38' E 130°24'0 0.0
2014-Oct-18 01:31N 33°38' E 130°24'0 0.0
2014-Oct-18 00:31N 33°38' E 130°24'0 0.0
2014-Oct-17 23:31N 33°38' E 130°24'0 0.0
2014-Oct-17 22:31N 33°38' E 130°24'0 0.0
2014-Oct-17 21:31N 33°38' E 130°24'0 0.0
2014-Oct-17 20:33N 33°38' E 130°24'8 8.4
2014-Oct-17 19:33N 33°42' E 130°16'2119.8
2014-Oct-17 18:31N 33°60' E 130°27'45716.3
2014-Oct-16 14:32N 35°03' E 139°37'1515.5
2014-Oct-16 13:33N 35°16' E 139°46'1312.7
2014-Oct-16 12:33N 35°28' E 139°49'257 8.5
2014-Oct-15 06:27N 33°53' E 134°59'2022.7
2014-Oct-15 05:33N 34°14' E 134°58'2121.2
2014-Oct-15 04:33N 34°35' E 135°02'1817.5
2014-Oct-15 03:31N 34°32' E 134°41'10011.2
2014-Oct-14 18:33N 34°01' E 132°46'2521.0
2014-Oct-14 17:23N 33°45' E 132°23'8617.8
2014-Oct-14 12:33N 34°03' E 130°42'1919.2
2014-Oct-14 11:33N 33°53' E 130°21'1615.6
2014-Oct-14 10:33N 33°38' E 130°21'2 2.3
2014-Oct-14 09:32N 33°38' E 130°24'  

Dump ship's entire track history